Ana Sayfa
METAR-TAF:

METAR-TAF

Havaalanları :

Bandırma Havalimanı

Bandırma, Türkiye

Enlem: 40-19N, Boylam: 027-58E, yükseklik: 51 m

Güncel hava durumu gözlemi

Rapor saat 14:01 UTC de 1 saat ve 43 dakika önce yapıldı.
Rüzgar kuzey/kuzeydoğudan 14 kt
Sıcaklık 21°C
Nem 83%
Basınç 1013 hPa
Görüş mesafesi 10 km veya daha fazla
1500 ft yükseklikte az bulutlu
3500 ft yükseklikte parçalı bulutlu
10000 ft yükseklikte parçalı çok bulutlu

METAR: LTBG 261401Z 02014KT 9999 FEW015 SCT035 BKN100 21/18 Q1013 RESHRA NOSIG RMK RWY18 01016KT

Saat: 18:44 (15:44 UTC)


TAF: eksik

4.000'den fazla havaalanı için hava durumu gözlemleri ve tahminleri (METAR ve TAF raporları).

Kullanılabilir istasyonlar harita üzerinde sarı ve kırmızı noktalarla gösterilir.

İstasyonun adını görmek için fareyi noktanın üzerinde gezdirin.

Sonrasında hava gözlem ve tahminlerini görmek için tıklayın.

Haritayı değiştirmek için: yaklaştırmak için siyah artı işaretli yeşil düğmeye ve uzaklaştırmak için de eksi işaretli düğmeye hızla tıklayın; bitişik haritalar için yeşil okları kullanın.


METAR-TAF: